Amity Harbor, New York
Current Conditions -  °F | °C
As of 1:53 PM on Sunday 23 Nov 2014 (Local Time) from KFRG Reporting Station
Clear Clear  
Wind Chill: 53°   Ceiling: Unl
Heat Index: 53°   Visibility: 10mi
Dew Point: 27°   Wind: 10mph
Humidity: 37%   Direction: 230°SW
Pressure: 30.17"   Gusts: NA
Location:  40.6858°N, 73.4152°W
Report Text: KFRG 231853Z 23009KT 10SM CLR 12/M03 A3017 RMK AO2 SLP216 T01171028
Loading
Personal Weather Stations






























Interactive Weather Map New forecast layout! Learn more

10-Day Weather Forecast

Advertisements
Track Severe Weather on mobile